Time;durP1;ratioP1;P1;durP2;ratioP2;P2;SDS_P1;SDS_P2;PMS_P1;PMS_P2;Temp;Humidity;BMP_temperature;BMP_pressure;BME280_temperature;BME280_humidity;BME280_pressure;Samples;Min_cycle;Max_cycle;Signal;HPM_P1;HPM_P2
2022/09/24 00:01:34;;;;;;;11.77;10.00;;;14.90;99.90;;;;;;6168164;23;20081;-85
2022/09/24 00:04:07;;;;;;;12.57;9.45;;;14.90;99.90;;;;;;6184530;23;20047;-85
2022/09/24 00:06:39;;;;;;;9.77;7.20;;;15.00;99.90;;;;;;6190710;23;20091;-86
2022/09/24 00:09:09;;;;;;;7.95;4.90;;;14.90;99.90;;;;;;6192769;22;20098;-85
2022/09/24 00:11:37;;;;;;;5.65;3.55;;;14.90;99.90;;;;;;6221108;22;20019;-85
2022/09/24 00:14:05;;;;;;;6.18;2.80;;;15.00;99.90;;;;;;6221631;22;20051;-85
2022/09/24 00:16:33;;;;;;;5.75;2.83;;;15.00;99.90;;;;;;6219963;22;20043;-84
2022/09/24 00:19:05;;;;;;;5.88;2.50;;;15.00;99.90;;;;;;6221613;22;20016;-85
2022/09/24 00:21:33;;;;;;;4.35;2.00;;;15.00;99.90;;;;;;6220978;22;20023;-85
2022/09/24 00:24:05;;;;;;;6.00;2.33;;;15.00;99.90;;;;;;6246621;22;20347;-86
2022/09/24 00:26:49;;;;;;;3.95;1.52;;;15.00;99.90;;;;;;6218945;22;20016;-83
2022/09/24 00:29:25;;;;;;;6.60;1.90;;;15.00;99.90;;;;;;6198826;22;20466;-83
2022/09/24 00:31:51;;;;;;;6.80;2.03;;;14.10;99.90;;;;;;6220689;22;20455;-83
2022/09/24 00:34:18;;;;;;;5.47;1.60;;;15.00;99.90;;;;;;6219846;22;20020;-85
2022/09/24 00:36:47;;;;;;;8.27;2.13;;;15.00;99.90;;;;;;6219443;22;20104;-84
2022/09/24 00:39:13;;;;;;;7.20;1.60;;;15.40;99.90;;;;;;6194879;22;20072;-83
2022/09/24 00:41:43;;;;;;;5.88;1.52;;;15.00;99.90;;;;;;6220137;22;20023;-84
2022/09/24 00:44:40;;;;;;;6.35;1.80;;;15.00;99.90;;;;;;6220620;22;20020;-83
2022/09/24 00:47:38;;;;;;;;;;;15.00;99.90;;;;;;6220669;22;20012;-83
2022/09/24 00:50:16;;;;;;;6.75;1.90;;;14.90;99.90;;;;;;6186167;22;19919;-85
2022/09/24 00:52:54;;;;;;;8.43;2.13;;;14.60;99.90;;;;;;6220450;22;20106;-84
2022/09/24 00:55:22;;;;;;;6.30;2.10;;;14.90;99.90;;;;;;6219435;22;20462;-84
2022/09/24 00:57:55;;;;;;;9.18;2.00;;;14.90;99.90;;;;;;6219572;22;20028;-84
2022/09/24 01:00:24;;;;;;;8.55;2.13;;;15.00;99.90;;;;;;6219498;22;20106;-83
2022/09/24 01:02:55;;;;;;;8.73;2.35;;;14.90;99.90;;;;;;6219417;22;20018;-84
2022/09/24 01:05:21;;;;;;;7.85;2.33;;;15.00;99.90;;;;;;6194415;22;20019;-85
2022/09/24 01:07:47;;;;;;;5.57;1.60;;;14.90;99.90;;;;;;6218455;22;20019;-83
2022/09/24 01:10:46;;;;;;;7.90;2.28;;;14.90;99.90;;;;;;6219333;22;20024;-83
2022/09/24 01:13:47;;;;;;;6.50;2.00;;;15.00;99.90;;;;;;6245730;22;20079;-83
2022/09/24 01:16:27;;;;;;;6.28;2.00;;;15.00;99.90;;;;;;6219849;22;20459;-84
2022/09/24 01:19:16;;;;;;;6.53;2.25;;;14.90;99.90;;;;;;6245721;22;20870;-84
2022/09/24 01:21:52;;;;;;;6.45;2.30;;;14.70;99.90;;;;;;6219703;22;20022;-85
2022/09/24 01:25:00;;;;;;;8.30;2.17;;;13.90;99.90;;;;;;6220456;22;20020;-83
2022/09/24 01:27:45;;;;;;;6.20;1.98;;;14.90;99.90;;;;;;6219314;22;20467;-84
2022/09/24 01:30:26;;;;;;;6.53;1.83;;;14.90;99.90;;;;;;6220256;22;20069;-83
2022/09/24 01:33:02;;;;;;;5.05;1.60;;;14.90;99.90;;;;;;6245722;22;20019;-84
2022/09/24 01:35:42;;;;;;;7.22;1.92;;;14.40;99.90;;;;;;6220270;22;20051;-85
2022/09/24 01:38:37;;;;;;;9.23;1.92;;;14.80;99.90;;;;;;6245091;22;20011;-84
2022/09/24 01:41:11;;;;;;;7.43;1.92;;;14.80;99.90;;;;;;6245884;22;20435;-84
2022/09/24 01:43:38;;;;;;;7.18;1.95;;;14.80;99.90;;;;;;6245814;22;20063;-84
2022/09/24 01:46:06;;;;;;;5.30;1.67;;;14.80;99.90;;;;;;6221270;22;20154;-84
2022/09/24 01:48:39;;;;;;;9.98;2.20;;;14.80;99.90;;;;;;6194690;22;20023;-84
2022/09/24 01:51:11;;;;;;;7.60;1.70;;;14.70;99.90;;;;;;6219250;22;20074;-84
2022/09/24 01:53:46;;;;;;;11.02;2.30;;;14.70;99.90;;;;;;6219452;22;20025;-84
2022/09/24 01:56:40;;;;;;;6.53;1.85;;;14.80;99.90;;;;;;6220178;22;20027;-83
2022/09/24 01:59:36;;;;;;;7.57;2.17;;;14.70;99.90;;;;;;6220783;22;20015;-85
2022/09/24 02:02:28;;;;;;;10.60;2.30;;;14.70;99.90;;;;;;6222514;22;20020;-85
2022/09/24 02:05:05;;;;;;;8.13;1.90;;;14.70;99.90;;;;;;6181783;22;20073;-84
2022/09/24 02:07:57;;;;;;;6.10;2.08;;;14.60;99.90;;;;;;6222552;22;20019;-83
2022/09/24 02:10:31;;;;;;;6.50;1.70;;;14.60;99.90;;;;;;6222598;22;20020;-86
2022/09/24 02:13:04;;;;;;;8.43;2.25;;;14.60;99.90;;;;;;6223210;22;20367;-85
2022/09/24 02:15:42;;;;;;;8.60;1.88;;;14.60;99.90;;;;;;6248583;22;20164;-85
2022/09/24 02:18:13;;;;;;;7.25;1.80;;;14.60;99.90;;;;;;6196987;22;20073;-83
2022/09/24 02:20:46;;;;;;;5.32;1.63;;;14.60;99.90;;;;;;6197751;22;20024;-85
2022/09/24 02:23:17;;;;;;;10.02;2.30;;;14.90;99.90;;;;;;6223114;22;20098;-85
2022/09/24 02:25:53;;;;;;;9.20;2.20;;;14.70;99.90;;;;;;6246796;22;20107;-84
2022/09/24 02:28:19;;;;;;;10.13;1.92;;;14.60;99.90;;;;;;6221856;22;20411;-84
2022/09/24 02:30:52;;;;;;;7.90;2.10;;;14.50;99.90;;;;;;6221884;22;20047;-84
2022/09/24 02:36:10;;;;;;;8.85;2.05;;;14.50;99.90;;;;;;6246824;22;20024;-85
2022/09/24 02:38:37;;;;;;;10.15;2.30;;;14.60;99.90;;;;;;6219702;22;20019;-84
2022/09/24 02:41:07;;;;;;;8.32;2.10;;;14.60;99.90;;;;;;6247870;22;20397;-83
2022/09/24 02:43:35;;;;;;;7.60;1.98;;;14.50;99.90;;;;;;6222651;22;20054;-84
2022/09/24 02:46:08;;;;;;;10.07;2.03;;;14.40;99.90;;;;;;6222699;22;20065;-86
2022/09/24 02:48:45;;;;;;;10.75;1.95;;;14.40;99.90;;;;;;6221525;22;20023;-84
2022/09/24 02:51:31;;;;;;;7.07;1.70;;;14.40;99.90;;;;;;6197982;22;20016;-84
2022/09/24 02:54:00;;;;;;;9.40;2.38;;;14.50;99.90;;;;;;6222529;22;20026;-84
2022/09/24 02:56:27;;;;;;;13.02;2.22;;;14.50;99.90;;;;;;6222796;22;20603;-86
2022/09/24 02:58:56;;;;;;;12.85;1.85;;;14.40;99.90;;;;;;6222486;22;20516;-84
2022/09/24 03:01:30;;;;;;;7.80;2.00;;;14.40;99.90;;;;;;6248687;22;20016;-84
2022/09/24 03:03:56;;;;;;;7.38;1.70;;;14.40;99.90;;;;;;6248466;22;20020;-84
2022/09/24 03:06:26;;;;;;;9.27;1.73;;;14.30;99.90;;;;;;6222064;22;20027;-83
2022/09/24 03:09:02;;;;;;;6.90;1.80;;;14.40;99.90;;;;;;6246305;22;20023;-85
2022/09/24 03:11:30;;;;;;;8.25;2.03;;;14.30;99.90;;;;;;6222163;22;20019;-84
2022/09/24 03:13:57;;;;;;;6.07;1.80;;;14.30;99.90;;;;;;6220345;22;20048;-84
2022/09/24 03:16:33;;;;;;;8.98;1.77;;;14.30;99.90;;;;;;6220060;22;20443;-84
2022/09/24 03:19:01;;;;;;;8.98;1.73;;;14.30;99.90;;;;;;6221410;22;20015;-83
2022/09/24 03:21:30;;;;;;;6.32;1.60;;;14.30;99.90;;;;;;6220318;22;20094;-85
2022/09/24 03:23:56;;;;;;;7.93;1.50;;;14.30;99.90;;;;;;6220217;22;20077;-84
2022/09/24 03:26:24;;;;;;;6.38;1.80;;;14.30;99.90;;;;;;6220254;22;20020;-84
2022/09/24 03:28:53;;;;;;;8.60;1.95;;;14.20;99.90;;;;;;6245874;22;20094;-86
2022/09/24 03:31:26;;;;;;;8.73;1.80;;;14.20;99.90;;;;;;6246312;22;20011;-83
2022/09/24 03:34:04;;;;;;;8.77;1.98;;;14.20;99.90;;;;;;6194667;22;20019;-83
2022/09/24 03:36:34;;;;;;;8.90;1.83;;;14.20;99.90;;;;;;6196793;22;20031;-85
2022/09/24 03:39:03;;;;;;;6.53;1.60;;;14.20;99.90;;;;;;6221481;22;20024;-83
2022/09/24 03:41:31;;;;;;;8.45;1.55;;;13.10;99.90;;;;;;6220725;22;20023;-83
2022/09/24 03:43:59;;;;;;;9.18;1.88;;;14.10;99.90;;;;;;6221440;22;20020;-84
2022/09/24 03:46:34;;;;;;;7.18;2.13;;;14.10;99.90;;;;;;6220690;22;20105;-84
2022/09/24 03:49:05;;;;;;;10.13;1.77;;;14.00;99.90;;;;;;6197182;22;20024;-84
2022/09/24 03:51:36;;;;;;;5.88;1.65;;;14.10;99.90;;;;;;6195842;22;20023;-84
2022/09/24 03:54:02;;;;;;;9.10;1.77;;;14.10;99.90;;;;;;6196863;22;20026;-84
2022/09/24 03:56:28;;;;;;;8.25;1.77;;;14.10;99.90;;;;;;6219150;22;20055;-84
2022/09/24 03:58:56;;;;;;;4.65;1.50;;;14.00;99.90;;;;;;6218988;22;20011;-83
2022/09/24 04:01:22;;;;;;;5.97;1.45;;;14.00;99.90;;;;;;6220175;22;20069;-85
2022/09/24 04:03:51;;;;;;;7.03;1.67;;;14.30;99.90;;;;;;6218887;22;20094;-84
2022/09/24 04:06:17;;;;;;;9.57;1.65;;;14.00;99.90;;;;;;6219782;22;20389;-84
2022/09/24 04:08:43;;;;;;;10.80;1.90;;;13.90;99.90;;;;;;6220343;22;20018;-84
2022/09/24 04:11:12;;;;;;;7.40;1.70;;;13.90;99.90;;;;;;6220053;22;20015;-84
2022/09/24 04:13:47;;;;;;;7.53;1.67;;;13.90;99.90;;;;;;6220705;22;20094;-84
2022/09/24 04:16:20;;;;;;;8.07;1.90;;;13.90;99.90;;;;;;6220581;22;20028;-84
2022/09/24 04:18:47;;;;;;;8.90;1.45;;;13.90;99.90;;;;;;6220080;22;20023;-84
2022/09/24 04:21:18;;;;;;;4.80;1.55;;;13.30;99.90;;;;;;6245962;22;20016;-84
2022/09/24 04:23:47;;;;;;;8.55;1.55;;;13.80;99.90;;;;;;6195742;22;20016;-84
2022/09/24 04:26:22;;;;;;;8.70;2.15;;;13.90;99.90;;;;;;6245681;22;20020;-83
2022/09/24 04:28:49;;;;;;;5.88;1.52;;;13.80;99.90;;;;;;6220485;22;20016;-84
2022/09/24 04:31:15;;;;;;;5.40;1.27;;;13.80;99.90;;;;;;6220343;22;20042;-84
2022/09/24 04:34:08;;;;;;;10.52;2.08;;;13.80;99.90;;;;;;6195464;22;20030;-85
2022/09/24 04:36:37;;;;;;;6.85;1.67;;;14.20;99.90;;;;;;6220032;22;20030;-87
2022/09/24 04:39:03;;;;;;;9.02;1.95;;;13.80;99.90;;;;;;6197227;22;20081;-85
2022/09/24 04:41:32;;;;;;;7.10;1.70;;;13.90;99.90;;;;;;6220706;22;20019;-84
2022/09/24 04:43:58;;;;;;;7.80;1.70;;;13.80;99.90;;;;;;6246027;22;20019;-84
2022/09/24 04:46:24;;;;;;;8.23;1.60;;;13.80;99.90;;;;;;6220456;22;20077;-84
2022/09/24 04:48:57;;;;;;;9.25;1.98;;;13.70;99.90;;;;;;6245102;22;20030;-84
2022/09/24 04:51:25;;;;;;;7.85;2.25;;;13.80;99.90;;;;;;6246618;22;20031;-84
2022/09/24 04:53:54;;;;;;;12.35;2.60;;;14.00;99.90;;;;;;6195574;22;20466;-85
2022/09/24 04:56:29;;;;;;;7.18;1.30;;;13.80;99.90;;;;;;6220258;22;20502;-84
2022/09/24 04:59:04;;;;;;;4.17;1.07;;;13.80;99.90;;;;;;6245685;22;20015;-84
2022/09/24 05:01:40;;;;;;;5.75;1.40;;;13.80;99.90;;;;;;6247766;22;20015;-84
2022/09/24 05:04:06;;;;;;;7.43;1.35;;;13.70;99.90;;;;;;6220857;22;20026;-84
2022/09/24 05:06:35;;;;;;;10.50;1.75;;;13.80;99.90;;;;;;6220272;22;20094;-84
2022/09/24 05:09:00;;;;;;;11.13;2.00;;;13.10;99.90;;;;;;6245186;22;20020;-84
2022/09/24 05:11:34;;;;;;;6.47;1.85;;;13.80;99.90;;;;;;6195493;22;20026;-84
2022/09/24 05:14:04;;;;;;;8.23;1.52;;;13.90;99.90;;;;;;6220014;22;20026;-83
2022/09/24 05:16:36;;;;;;;6.78;1.27;;;13.80;99.90;;;;;;6220130;22;20026;-86
2022/09/24 05:19:14;;;;;;;7.00;1.48;;;13.50;99.90;;;;;;6221061;22;20020;-84
2022/09/24 05:21:40;;;;;;;3.95;1.20;;;13.70;99.90;;;;;;6194902;22;20380;-87
2022/09/24 05:24:11;;;;;;;4.97;1.30;;;13.70;99.90;;;;;;6219723;22;20019;-84
2022/09/24 05:29:29;;;;;;;6.07;1.50;;;13.70;99.90;;;;;;6244199;22;20035;-84
2022/09/24 05:31:59;;;;;;;6.95;1.50;;;13.50;99.90;;;;;;6218159;22;20020;-84
2022/09/24 05:34:28;;;;;;;6.45;1.52;;;13.80;99.90;;;;;;6219137;22;20035;-84
2022/09/24 05:36:56;;;;;;;4.80;1.40;;;13.80;99.90;;;;;;6217392;22;20423;-84
2022/09/24 05:39:24;;;;;;;9.02;1.65;;;13.70;99.90;;;;;;6217953;22;20019;-85
2022/09/24 05:41:50;;;;;;;6.63;2.05;;;13.70;99.90;;;;;;6219139;22;20102;-85
2022/09/24 05:44:26;;;;;;;6.93;1.60;;;12.70;99.90;;;;;;6220498;22;20019;-84
2022/09/24 05:46:54;;;;;;;9.32;1.73;;;13.90;99.90;;;;;;6219436;22;20402;-84
2022/09/24 05:49:22;;;;;;;7.25;1.25;;;14.80;99.90;;;;;;6220106;22;20019;-84
2022/09/24 05:51:51;;;;;;;6.68;2.10;;;13.80;99.90;;;;;;6219857;22;20435;-83
2022/09/24 05:54:18;;;;;;;10.10;1.95;;;13.70;99.90;;;;;;6219938;22;20019;-84
2022/09/24 05:56:44;;;;;;;4.88;1.70;;;13.70;99.90;;;;;;6217532;22;20061;-84
2022/09/24 05:59:17;;;;;;;5.93;1.50;;;13.80;99.90;;;;;;6218537;22;20019;-85
2022/09/24 06:01:43;;;;;;;5.65;1.35;;;13.80;99.90;;;;;;6193620;22;20016;-85
2022/09/24 06:04:10;;;;;;;5.53;1.20;;;13.90;99.90;;;;;;6194300;22;20458;-83
2022/09/24 06:06:48;;;;;;;8.05;1.65;;;13.90;99.90;;;;;;6193820;22;20066;-87
2022/09/24 06:09:17;;;;;;;6.47;1.77;;;13.80;99.90;;;;;;6244869;22;20022;-84
2022/09/24 06:11:43;;;;;;;8.40;1.55;;;13.80;99.90;;;;;;6243523;22;20024;-84
2022/09/24 06:14:11;;;;;;;9.30;1.90;;;13.90;99.90;;;;;;6219048;22;20023;-84
2022/09/24 06:16:37;;;;;;;7.63;1.70;;;13.80;99.90;;;;;;6193942;22;20016;-83
2022/09/24 06:19:03;;;;;;;8.32;1.40;;;13.90;99.90;;;;;;6244126;22;20016;-84
2022/09/24 06:21:32;;;;;;;9.63;1.73;;;13.90;99.90;;;;;;6244575;22;20016;-83
2022/09/24 06:24:01;;;;;;;5.38;1.75;;;13.90;99.90;;;;;;6193456;22;20022;-84
2022/09/24 06:26:32;;;;;;;6.88;1.42;;;13.90;99.90;;;;;;6193868;22;20026;-83
2022/09/24 06:28:59;;;;;;;6.95;1.73;;;14.00;99.90;;;;;;6194287;22;20502;-83
2022/09/24 06:31:25;;;;;;;4.70;1.65;;;14.00;99.90;;;;;;6243724;22;20054;-84
2022/09/24 06:33:51;;;;;;;3.40;1.30;;;14.00;99.90;;;;;;6218367;22;20023;-83
2022/09/24 06:36:17;;;;;;;3.80;1.00;;;14.00;99.90;;;;;;6218802;22;20020;-82
2022/09/24 06:38:53;;;;;;;7.90;1.42;;;14.00;99.90;;;;;;6193145;22;20016;-84
2022/09/24 06:41:24;;;;;;;9.02;1.48;;;14.10;99.90;;;;;;6218270;22;20106;-83
2022/09/24 06:43:53;;;;;;;4.22;1.30;;;14.20;99.90;;;;;;6217954;22;20062;-83
2022/09/24 06:46:29;;;;;;;;;;;;;;;;;;;;;
2022/09/24 06:48:59;;;;;;;5.25;1.10;;;14.10;99.90;;;;;;6246561;22;20016;-83
2022/09/24 06:51:25;;;;;;;9.38;1.65;;;14.20;99.90;;;;;;6223625;22;20011;-85
2022/09/24 06:53:54;;;;;;;7.00;1.40;;;14.40;99.90;;;;;;6222983;22;20024;-86
2022/09/24 06:56:20;;;;;;;6.10;1.70;;;14.30;99.90;;;;;;6221922;22;20019;-85
2022/09/24 06:58:48;;;;;;;5.88;1.60;;;14.20;99.90;;;;;;6221201;22;20016;-87
2022/09/24 07:01:16;;;;;;;6.97;1.50;;;14.40;99.90;;;;;;6221406;22;20398;-85
2022/09/24 07:03:42;;;;;;;9.50;2.10;;;14.20;99.90;;;;;;6196275;22;20015;-84
2022/09/24 07:06:10;;;;;;;7.00;1.25;;;14.20;99.90;;;;;;6220219;22;20107;-84
2022/09/24 07:08:36;;;;;;;2.97;1.10;;;14.30;99.90;;;;;;6246090;22;20019;-85
2022/09/24 07:11:02;;;;;;;8.13;1.30;;;14.30;99.90;;;;;;6245290;22;20019;-84
2022/09/24 07:13:29;;;;;;;9.80;1.20;;;14.30;99.90;;;;;;6220980;22;20016;-82
2022/09/24 07:16:00;;;;;;;7.20;1.40;;;14.30;99.90;;;;;;6220818;22;20351;-83
2022/09/24 07:18:26;;;;;;;7.22;1.63;;;14.30;99.90;;;;;;6195543;22;20019;-84
2022/09/24 07:20:56;;;;;;;5.93;1.48;;;14.40;99.90;;;;;;6220692;22;20026;-86
2022/09/24 07:23:22;;;;;;;7.18;1.23;;;14.40;99.90;;;;;;6196723;22;20024;-84
2022/09/24 07:25:51;;;;;;;7.05;1.35;;;14.40;99.90;;;;;;6220343;22;20351;-85
2022/09/24 07:28:18;;;;;;;4.05;1.10;;;14.30;99.90;;;;;;6246202;22;20020;-84
2022/09/24 07:30:44;;;;;;;5.40;1.00;;;14.40;99.90;;;;;;6220860;22;20020;-84
2022/09/24 07:33:10;;;;;;;8.20;1.40;;;14.30;99.90;;;;;;6194935;22;20023;-84
2022/09/24 07:35:39;;;;;;;9.68;1.80;;;14.30;99.90;;;;;;6221066;22;20015;-85
2022/09/24 07:38:15;;;;;;;5.47;1.48;;;14.30;99.90;;;;;;6245632;22;20019;-85
2022/09/24 07:40:44;;;;;;;6.68;1.58;;;14.30;99.90;;;;;;6221334;22;20054;-85
2022/09/24 07:43:12;;;;;;;6.22;1.40;;;14.30;99.90;;;;;;6220899;22;20445;-85
2022/09/24 07:45:39;;;;;;;5.57;1.25;;;14.40;99.90;;;;;;6196949;22;20062;-85
2022/09/24 07:48:05;;;;;;;9.35;1.63;;;14.40;99.90;;;;;;6246327;22;20019;-86
2022/09/24 07:50:38;;;;;;;7.55;1.80;;;14.40;99.90;;;;;;6221997;22;20022;-85
2022/09/24 07:53:07;;;;;;;8.55;1.50;;;14.50;99.90;;;;;;6221800;22;20031;-87
2022/09/24 07:55:38;;;;;;;6.95;1.40;;;14.50;99.90;;;;;;6222290;22;20034;-85
2022/09/24 07:58:04;;;;;;;4.28;1.25;;;14.60;99.90;;;;;;6172666;22;20019;-84
2022/09/24 08:00:32;;;;;;;8.10;1.60;;;14.50;99.90;;;;;;6221355;22;20027;-86
2022/09/24 08:03:02;;;;;;;5.45;1.35;;;14.60;99.90;;;;;;6196073;22;20030;-85
2022/09/24 08:05:31;;;;;;;7.18;1.42;;;14.50;99.90;;;;;;6222144;22;20019;-84
2022/09/24 08:08:02;;;;;;;7.93;1.35;;;14.60;99.90;;;;;;6220010;22;20435;-82
2022/09/24 08:10:32;;;;;;;7.85;1.65;;;14.60;99.90;;;;;;6245592;22;20039;-83
2022/09/24 08:13:01;;;;;;;6.82;1.50;;;14.10;99.90;;;;;;6195026;22;20024;-82
2022/09/24 08:15:27;;;;;;;7.63;1.40;;;14.60;99.90;;;;;;6220894;22;20015;-82
2022/09/24 08:17:52;;;;;;;6.82;1.42;;;13.60;99.90;;;;;;6219955;22;20404;-83
2022/09/24 08:20:19;;;;;;;6.03;1.45;;;14.80;99.90;;;;;;6195965;22;20027;-83
2022/09/24 08:22:45;;;;;;;6.60;1.40;;;14.90;99.90;;;;;;6220753;22;20019;-83
2022/09/24 08:25:11;;;;;;;8.15;1.50;;;15.00;99.90;;;;;;6220973;22;20069;-82
2022/09/24 08:27:37;;;;;;;8.95;1.75;;;15.10;99.90;;;;;;6220998;22;20015;-82
2022/09/24 08:30:09;;;;;;;6.20;1.63;;;15.30;99.90;;;;;;6196000;22;20055;-83
2022/09/24 08:32:35;;;;;;;8.13;1.88;;;15.50;99.90;;;;;;6221319;22;20023;-83
2022/09/24 08:35:07;;;;;;;9.68;1.73;;;15.60;99.90;;;;;;6220877;22;20514;-83
2022/09/24 08:37:32;;;;;;;6.78;1.75;;;15.80;99.90;;;;;;6196440;22;20088;-82
2022/09/24 08:39:58;;;;;;;7.70;1.70;;;16.00;99.90;;;;;;6219675;22;20024;-83
2022/09/24 08:42:40;;;;;;;6.10;1.75;;;16.10;99.90;;;;;;6220250;22;20121;-84
2022/09/24 08:48:01;;;;;;;7.38;1.67;;;16.40;99.90;;;;;;6223512;22;20035;-85
2022/09/24 08:50:33;;;;;;;3.55;1.33;;;16.70;99.90;;;;;;6246299;22;20402;-84
2022/09/24 08:53:23;;;;;;;6.30;1.20;;;16.80;99.90;;;;;;6219552;22;20016;-84
2022/09/24 08:55:57;;;;;;;6.40;1.40;;;17.40;99.90;;;;;;6219227;22;20030;-85
2022/09/24 08:58:43;;;;;;;5.70;1.15;;;17.50;99.90;;;;;;6219906;22;20394;-84
2022/09/24 09:01:46;;;;;;;6.20;1.20;;;17.80;99.90;;;;;;6248865;22;20020;-85
2022/09/24 09:04:43;;;;;;;5.63;1.38;;;18.00;99.90;;;;;;6220825;22;20015;-85
2022/09/24 09:07:32;;;;;;;;;;;;;;;;;;;;;
2022/09/24 09:10:12;;;;;;;5.15;1.52;;;18.20;99.90;;;;;;6245573;22;20023;-85
2022/09/24 09:13:11;;;;;;;6.38;1.35;;;18.30;99.90;;;;;;6221021;22;20379;-86
2022/09/24 09:16:03;;;;;;;3.55;0.90;;;18.50;99.90;;;;;;6221014;22;20334;-86
2022/09/24 09:18:38;;;;;;;5.18;1.15;;;18.60;99.90;;;;;;6209161;22;20015;-86
2022/09/24 09:21:25;;;;;;;5.13;1.33;;;18.70;99.90;;;;;;6221355;22;20015;-87
2022/09/24 09:24:00;;;;;;;5.88;1.70;;;19.10;99.90;;;;;;6221302;22;20022;-87
2022/09/24 09:26:38;;;;;;;;;;;;;;;;;;;;;
2022/09/24 09:29:11;;;;;;;5.82;0.98;;;19.20;99.90;;;;;;6223656;22;20022;-87
2022/09/24 09:31:53;;;;;;;7.75;1.20;;;19.50;99.90;;;;;;6221080;22;20020;-85
2022/09/24 09:34:53;;;;;;;3.65;0.93;;;19.60;99.90;;;;;;6220315;22;20035;-85
2022/09/24 09:37:27;;;;;;;5.05;1.15;;;19.50;99.90;;;;;;6219640;22;20016;-86
2022/09/24 09:40:20;;;;;;;6.78;1.40;;;19.60;99.90;;;;;;6245902;22;20042;-84
2022/09/24 09:42:51;;;;;;;6.43;1.35;;;20.20;99.90;;;;;;6221066;22;20020;-86
2022/09/24 09:45:55;;;;;;;5.35;1.30;;;20.00;99.90;;;;;;6220341;22;20020;-86
2022/09/24 09:48:25;;;;;;;6.95;1.60;;;20.20;99.90;;;;;;6206619;22;20033;-84
2022/09/24 09:51:04;;;;;;;4.90;1.30;;;20.50;99.90;;;;;;6222144;22;20033;-86
2022/09/24 09:53:33;;;;;;;5.22;1.17;;;20.70;99.90;;;;;;6246734;22;20122;-86
2022/09/24 09:56:09;;;;;;;9.32;1.75;;;20.80;99.90;;;;;;6219924;22;20019;-88
2022/09/24 09:58:46;;;;;;;4.22;1.15;;;20.70;99.90;;;;;;6197392;22;20019;-85
2022/09/24 10:01:21;;;;;;;5.25;1.35;;;21.10;99.90;;;;;;6219968;22;20122;-87
2022/09/24 10:03:51;;;;;;;7.45;1.98;;;21.30;99.90;;;;;;6244489;22;20015;-85
2022/09/24 10:06:31;;;;;;;3.67;1.10;;;20.90;99.90;;;;;;6217600;22;20020;-87
2022/09/24 10:09:38;;;;;;;5.43;1.40;;;20.70;99.90;;;;;;6246079;22;20093;-88
2022/09/24 10:12:21;;;;;;;5.18;1.10;;;19.80;99.90;;;;;;6133889;23;20320;-88
2022/09/24 10:15:16;;;;;;;7.47;1.63;;;21.00;99.90;;;;;;6216597;23;20020;-89
2022/09/24 10:17:54;;;;;;;6.38;1.40;;;19.80;99.90;;;;;;6191102;23;20074;-85
2022/09/24 10:20:32;;;;;;;6.68;1.25;;;20.40;99.90;;;;;;6188957;23;20487;-86
2022/09/24 10:23:17;;;;;;;4.45;1.10;;;20.40;99.90;;;;;;6166880;23;20401;-85
2022/09/24 10:26:02;;;;;;;5.20;1.42;;;20.50;99.90;;;;;;6191588;23;20035;-86
2022/09/24 10:32:00;;;;;;;;;;;;;;;;;;;;;
2022/09/24 10:34:31;;;;;;;5.43;1.48;;;20.20;99.90;;;;;;6249868;23;20030;-88
2022/09/24 10:37:15;;;;;;;3.42;1.10;;;21.00;99.90;;;;;;6219747;23;20112;-86
2022/09/24 10:39:41;;;;;;;5.70;1.20;;;21.20;99.90;;;;;;6194215;23;20020;-86
2022/09/24 10:42:33;;;;;;;6.18;1.05;;;21.30;99.90;;;;;;6192402;23;20020;-86
2022/09/24 10:45:05;;;;;;;3.80;1.10;;;21.30;99.90;;;;;;6189463;23;20081;-85
2022/09/24 10:47:42;;;;;;;5.93;1.30;;;21.50;99.90;;;;;;6190739;23;20538;-86
2022/09/24 10:50:20;;;;;;;4.45;1.17;;;21.20;99.90;;;;;;6189625;23;20383;-84
2022/09/24 10:52:50;;;;;;;5.13;1.30;;;21.70;99.90;;;;;;6216961;23;20451;-84
2022/09/24 10:55:40;;;;;;;5.65;1.08;;;21.90;99.90;;;;;;6190622;23;20455;-85
2022/09/24 10:58:24;;;;;;;3.63;1.23;;;21.30;99.90;;;;;;6190238;23;20459;-84
2022/09/24 11:00:57;;;;;;;6.38;1.13;;;22.30;99.90;;;;;;6191628;23;20020;-84
2022/09/24 11:03:49;;;;;;;5.68;1.38;;;22.50;99.90;;;;;;6191055;23;20023;-85
2022/09/24 11:06:21;;;;;;;3.65;0.90;;;22.80;99.80;;;;;;6190528;23;20023;-84
2022/09/24 11:09:10;;;;;;;3.10;1.00;;;22.80;99.90;;;;;;6216148;23;20020;-85
2022/09/24 11:12:02;;;;;;;3.55;1.10;;;23.00;98.10;;;;;;6191626;23;20090;-84
2022/09/24 11:14:55;;;;;;;7.05;1.30;;;23.40;98.50;;;;;;6217211;23;20024;-84
2022/09/24 11:17:38;;;;;;;5.38;1.10;;;23.40;97.80;;;;;;6189646;23;20016;-85
2022/09/24 11:20:23;;;;;;;3.28;0.77;;;22.70;98.20;;;;;;6191076;23;20020;-86
2022/09/24 11:23:01;;;;;;;3.83;1.15;;;22.80;98.60;;;;;;6216810;23;20019;-85
2022/09/24 11:25:49;;;;;;;5.47;1.42;;;22.80;98.90;;;;;;6215005;23;20482;-85
2022/09/24 11:28:31;;;;;;;3.05;1.10;;;22.70;97.10;;;;;;6189404;23;20024;-86
2022/09/24 11:31:12;;;;;;;4.28;0.95;;;23.10;98.30;;;;;;6191767;23;20039;-85
2022/09/24 11:33:47;;;;;;;4.63;1.10;;;23.30;97.70;;;;;;6216328;23;20387;-85
2022/09/24 11:36:53;;;;;;;6.35;1.10;;;23.60;97.90;;;;;;6190549;23;20020;-85
2022/09/24 11:39:43;;;;;;;4.15;1.05;;;23.40;97.50;;;;;;6191236;23;20017;-83
2022/09/24 11:42:35;;;;;;;4.57;1.17;;;23.00;98.30;;;;;;6193958;23;20047;-92
2022/09/24 11:45:28;;;;;;;4.13;0.95;;;22.50;98.50;;;;;;6219566;23;20020;-91
2022/09/24 11:48:13;;;;;;;4.80;1.10;;;22.30;99.10;;;;;;6220615;23;20012;-90
2022/09/24 11:51:20;;;;;;;6.68;1.00;;;22.30;99.80;;;;;;6221144;23;20022;-89
2022/09/24 11:54:20;;;;;;;4.03;1.23;;;22.60;98.70;;;;;;6220535;23;20012;-91
2022/09/24 11:57:38;;;;;;;4.88;1.17;;;22.60;98.70;;;;;;6186228;23;20020;-91
2022/09/24 12:00:39;;;;;;;3.88;1.25;;;22.70;98.10;;;;;;6193625;23;20066;-90
2022/09/24 12:03:29;;;;;;;4.65;1.10;;;23.00;98.40;;;;;;6197595;23;20054;-90
2022/09/24 12:06:51;;;;;;;;;;;;;;;;;;;;;
2022/09/24 12:09:47;;;;;;;2.95;0.85;;;23.50;96.80;;;;;;6216631;23;20016;-86
2022/09/24 12:12:20;;;;;;;4.13;1.10;;;23.90;97.10;;;;;;6199784;22;20019;-83
2022/09/24 12:15:13;;;;;;;4.07;1.40;;;24.30;96.70;;;;;;6220799;22;20401;-83
2022/09/24 12:18:00;;;;;;;7.13;1.20;;;24.70;95.80;;;;;;6244974;22;20020;-83
2022/09/24 12:20:31;;;;;;;5.70;1.30;;;25.10;95.80;;;;;;6219604;22;20051;-83
2022/09/24 12:23:06;;;;;;;4.20;1.05;;;25.20;95.50;;;;;;6220684;22;20023;-83
2022/09/24 12:25:45;;;;;;;4.68;1.30;;;25.40;94.40;;;;;;6244706;22;20015;-83
2022/09/24 12:32:52;;;;;;;3.70;1.00;;;25.50;94.40;;;;;;6245401;22;20346;-83
2022/09/24 12:34:21;;;;;;;5.05;1.23;;;25.80;93.80;;;;;;6245603;22;20027;-83
2022/09/24 12:37:02;;;;;;;4.75;0.90;;;26.00;92.00;;;;;;6228407;22;20066;-82
2022/09/24 12:39:37;;;;;;;3.70;0.85;;;26.00;91.40;;;;;;6219849;22;20023;-83
2022/09/24 12:42:13;;;;;;;3.83;0.82;;;25.70;91.40;;;;;;6245264;22;20024;-82
2022/09/24 12:44:44;;;;;;;2.97;0.73;;;25.30;91.80;;;;;;6245637;22;20016;-82
2022/09/24 12:47:26;;;;;;;3.55;0.90;;;25.30;91.70;;;;;;6220049;22;20335;-83
2022/09/24 12:50:01;;;;;;;5.35;1.00;;;25.20;91.10;;;;;;6220065;22;20020;-82
2022/09/24 12:52:40;;;;;;;7.03;1.10;;;25.10;91.80;;;;;;6219532;22;20091;-82
2022/09/24 12:55:29;;;;;;;3.22;0.90;;;24.60;91.10;;;;;;6245553;22;20015;-83
2022/09/24 12:58:05;;;;;;;6.82;1.10;;;24.80;91.40;;;;;;6244635;22;20020;-82
2022/09/24 13:00:41;;;;;;;6.10;1.10;;;24.80;91.50;;;;;;6219240;22;20493;-81
2022/09/24 13:03:37;;;;;;;4.15;1.20;;;24.90;91.50;;;;;;6245652;22;20015;-82
2022/09/24 13:06:18;;;;;;;5.43;1.33;;;24.80;92.00;;;;;;6244924;22;20016;-82
2022/09/24 13:08:43;;;;;;;3.90;1.00;;;24.50;92.30;;;;;;6220282;22;20020;-82
2022/09/24 13:11:28;;;;;;;2.92;1.05;;;24.50;92.60;;;;;;6244967;22;20011;-83
2022/09/24 13:14:15;;;;;;;6.75;1.20;;;24.70;92.10;;;;;;6219912;22;20019;-90
2022/09/24 13:16:50;;;;;;;4.65;0.98;;;25.10;92.10;;;;;;6219809;22;20020;-84
2022/09/24 13:19:39;;;;;;;5.15;1.20;;;25.50;91.90;;;;;;6194547;22;20039;-83
2022/09/24 13:22:17;;;;;;;4.32;1.00;;;25.40;90.90;;;;;;6245266;22;20027;-83
2022/09/24 13:24:49;;;;;;;3.28;0.90;;;25.70;91.30;;;;;;6222684;22;20035;-83
2022/09/24 13:27:30;;;;;;;4.18;0.98;;;26.10;91.00;;;;;;6218579;22;20024;-83
2022/09/24 13:30:08;;;;;;;6.03;1.10;;;26.30;89.60;;;;;;6219984;22;20019;-83
2022/09/24 13:32:48;;;;;;;4.93;1.42;;;26.40;88.60;;;;;;6219417;22;20020;-83
2022/09/24 13:35:23;;;;;;;3.65;0.82;;;25.50;87.00;;;;;;6219106;22;20085;-83
2022/09/24 13:38:15;;;;;;;4.38;0.95;;;26.00;88.90;;;;;;6244237;22;20020;-83
2022/09/24 13:40:50;;;;;;;2.45;0.90;;;25.60;88.40;;;;;;6245176;22;20019;-82
2022/09/24 13:43:36;;;;;;;3.63;0.95;;;25.80;89.30;;;;;;6218644;22;20016;-83
2022/09/24 13:46:04;;;;;;;;;;;25.80;84.90;;;;;;6218733;22;20477;-83
2022/09/24 13:48:41;;;;;;;3.50;0.95;;;25.80;86.30;;;;;;6218764;22;19919;-83
2022/09/24 13:51:13;;;;;;;3.35;0.70;;;25.80;88.20;;;;;;6245281;22;20026;-83